Time;durP1;ratioP1;P1;durP2;ratioP2;P2;SDS_P1;SDS_P2;PMS_P1;PMS_P2;Temp;Humidity;BMP_temperature;BMP_pressure;BME280_temperature;BME280_humidity;BME280_pressure;Samples;Min_cycle;Max_cycle;Signal;HPM_P1;HPM_P2
2022/01/02 00:00:22;;;;;;;;;;;;;;;;;;999423;29;1144;-36
2022/01/02 00:00:54;;;;;;;;;;;;;;;;;;999328;29;1190;-35
2022/01/02 00:01:24;;;;;;;;;;;;;;;;;;1005093;29;966;-35
2022/01/02 00:01:56;;;;;;;;;;;;;;;;;;1011419;29;963;-35
2022/01/02 00:02:31;;;;;;;;;;;;;;;;;;1011551;29;905;-36
2022/01/02 00:03:02;;;;;;;;;;;;;;;;;;1011738;29;888;-35
2022/01/02 00:03:38;;;;;;;;;;;;;;;;;;1011607;29;848;-35
2022/01/02 00:04:13;;;;;;;;;;;;;;;;;;1011652;29;1500;-36
2022/01/02 00:04:48;;;;;;;;;;;;;;;;;;1011694;29;954;-34
2022/01/02 00:05:19;;;;;;;;;;;;;;;;;;1010928;29;1113;-34
2022/01/02 00:05:52;;;;;;;;;;;;;;;;;;1010197;29;1149;-34
2022/01/02 00:06:24;;;;;;;;;;;;;;;;;;1009759;29;1285;-34
2022/01/02 00:06:58;;;;;;;;;;;;;;;;;;1011434;29;1035;-34
2022/01/02 00:07:30;;;;;;;;;;;;;;;;;;1011388;29;1575;-34
2022/01/02 00:08:02;;;;;;;;;;;;;;;;;;1011568;29;967;-34
2022/01/02 00:08:38;;;;;;;;;;;;;;;;;;1011466;29;1133;-34
2022/01/02 00:09:08;;;;;;;;;;;;;;;;;;1011458;29;1236;-34
2022/01/02 00:09:42;;;;;;;;;;;;;;;;;;1011512;29;1255;-34
2022/01/02 00:10:13;;;;;;;;;;;;;;;;;;1011472;29;968;-34
2022/01/02 00:10:43;;;;;;;;;;;;;;;;;;1011524;29;1184;-34
2022/01/02 00:11:16;;;;;;;;;;;;;;;;;;1011450;29;1041;-34
2022/01/02 00:11:48;;;;;;;;;;;;;;;;;;1011354;29;1907;-34
2022/01/02 00:12:25;;;;;;;;;;;;;;;;;;1011471;29;1216;-34
2022/01/02 00:12:59;;;;;;;;;;;;;;;;;;1009502;29;1150;-34
2022/01/02 00:13:35;;;;;;;;;;;;;;;;;;1011406;29;1154;-33
2022/01/02 00:14:09;;;;;;;;;;;;;;;;;;1011437;29;1148;-34
2022/01/02 00:14:44;;;;;;;;;;;;;;;;;;1011401;29;1232;-34
2022/01/02 00:15:15;;;;;;;;;;;;;;;;;;1009126;29;1193;-34
2022/01/02 00:15:46;;;;;;;;;;;;;;;;;;1011282;29;1153;-34
2022/01/02 00:16:17;;;;;;;;;;;;;;;;;;1011507;29;1153;-34
2022/01/02 00:16:50;;;;;;;;;;;;;;;;;;1011447;29;1255;-34
2022/01/02 00:17:23;;;;;;;;;;;;;;;;;;1011497;29;1094;-34
2022/01/02 00:17:54;;;;;;;;;;;;;;;;;;1007322;29;1188;-34
2022/01/02 00:18:28;;;;;;;;;;;;;;;;;;1011038;29;1231;-34
2022/01/02 00:19:07;;;;;;;;;;;;;;;;;;1011255;29;1129;-33
2022/01/02 00:19:40;;;;;;;;;;;;;;;;;;1007521;29;1074;-34
2022/01/02 00:20:13;;;;;;;;;;;;;;;;;;1010365;29;1099;-34
2022/01/02 00:20:47;;;;;;;;;;;;;;;;;;1011606;29;1166;-34
2022/01/02 00:21:18;;;;;;;;;;;;;;;;;;1011403;29;1102;-34
2022/01/02 00:21:49;;;;;;;;;;;;;;;;;;1011509;29;1770;-33
2022/01/02 00:22:24;;;;;;;;;;;;;;;;;;1011452;29;1109;-34
2022/01/02 00:22:55;;;;;;;;;;;;;;;;;;1011628;29;1129;-34
2022/01/02 00:23:30;;;;;;;;;;;;;;;;;;1007314;29;1589;-33
2022/01/02 00:24:05;;;;;;;;;;;;;;;;;;1007492;29;921;-33
2022/01/02 00:24:36;;;;;;;;;;;;;;;;;;1007436;29;848;-34
2022/01/02 00:25:10;;;;;;;;;;;;;;;;;;1008869;29;1018;-33
2022/01/02 00:25:42;;;;;;;;;;;;;;;;;;1011564;29;1010;-33
2022/01/02 00:26:17;;;;;;;;;;;;;;;;;;1011151;29;836;-33
2022/01/02 00:26:49;;;;;;;;;;;;;;;;;;1011457;29;847;-33
2022/01/02 00:27:20;;;;;;;;;;;;;;;;;;1011250;29;868;-33
2022/01/02 00:27:51;;;;;;;;;;;;;;;;;;1011200;29;832;-33
2022/01/02 00:28:22;;;;;;;;;;;;;;;;;;1011713;29;851;-33
2022/01/02 00:28:52;;;;;;;;;;;;;;;;;;1011572;29;884;-33
2022/01/02 00:29:23;;;;;;;;;;;;;;;;;;1011687;29;1002;-33
2022/01/02 00:29:55;;;;;;;;;;;;;;;;;;1011501;29;947;-32
2022/01/02 00:30:26;;;;;;;;;;;;;;;;;;1011095;29;1230;-33
2022/01/02 00:30:57;;;;;;;;;;;;;;;;;;1011220;29;821;-33
2022/01/02 00:31:27;;;;;;;;;;;;;;;;;;1011305;29;931;-33
2022/01/02 00:31:58;;;;;;;;;;;;;;;;;;1011108;29;1918;-33
2022/01/02 00:32:28;;;;;;;;;;;;;;;;;;1007373;29;1147;-33
2022/01/02 00:33:00;;;;;;;;;;;;;;;;;;1007318;29;863;-33
2022/01/02 00:33:30;;;;;;;;;;;;;;;;;;1007415;29;920;-33
2022/01/02 00:34:02;;;;;;;;;;;;;;;;;;1007701;29;975;-33
2022/01/02 00:34:34;;;;;;;;;;;;;;;;;;1011049;29;991;-33
2022/01/02 00:35:04;;;;;;;;;;;;;;;;;;1007473;29;1333;-33
2022/01/02 00:35:36;;;;;;;;;;;;;;;;;;1003202;29;927;-33
2022/01/02 00:36:06;;;;;;;;;;;;;;;;;;1003527;29;1478;-33
2022/01/02 00:36:37;;;;;;;;;;;;;;;;;;1003580;29;718;-33
2022/01/02 00:37:08;;;;;;;;;;;;;;;;;;1007686;29;881;-33
2022/01/02 00:37:41;;;;;;;;;;;;;;;;;;1011614;29;1021;-33
2022/01/02 00:38:22;;;;;;;;;;;;;;;;;;1011419;29;983;-33
2022/01/02 00:38:53;;;;;;;;;;;;;;;;;;1011548;29;939;-33
2022/01/02 00:39:24;;;;;;;;;;;;;;;;;;1011490;29;1758;-33
2022/01/02 00:39:54;;;;;;;;;;;;;;;;;;1011551;29;935;-33
2022/01/02 00:40:24;;;;;;;;;;;;;;;;;;1011614;29;899;-34
2022/01/02 00:40:57;;;;;;;;;;;;;;;;;;1011371;29;1139;-33
2022/01/02 00:41:33;;;;;;;;;;;;;;;;;;1011516;29;904;-33
2022/01/02 00:42:05;;;;;;;;;;;;;;;;;;1011152;29;1261;-34
2022/01/02 00:42:39;;;;;;;;;;;;;;;;;;1011133;29;907;-33
2022/01/02 00:43:12;;;;;;;;;;;;;;;;;;1011286;29;884;-34
2022/01/02 00:43:47;;;;;;;;;;;;;;;;;;1011253;29;983;-34
2022/01/02 00:44:22;;;;;;;;;;;;;;;;;;1011084;29;1011;-34
2022/01/02 00:45:00;;;;;;;;;;;;;;;;;;1011243;29;983;-33
2022/01/02 00:45:40;;;;;;;;;;;;;;;;;;1010922;29;935;-34
2022/01/02 00:46:13;;;;;;;;;;;;;;;;;;1011471;29;955;-34
2022/01/02 00:46:56;;;;;;;;;;;;;;;;;;1011510;29;1022;-34
2022/01/02 00:47:37;;;;;;;;;;;;;;;;;;1011552;29;923;-34
2022/01/02 00:48:13;;;;;;;;;;;;;;;;;;1011606;29;911;-34
2022/01/02 00:48:44;;;;;;;;;;;;;;;;;;1011669;29;947;-34
2022/01/02 00:49:16;;;;;;;;;;;;;;;;;;1011065;29;924;-33
2022/01/02 00:49:55;;;;;;;;;;;;;;;;;;1011163;29;1253;-33
2022/01/02 00:50:40;;;;;;;;;;;;;;;;;;1011110;29;986;-34
2022/01/02 00:51:21;;;;;;;;;;;;;;;;;;1003873;29;1097;-34
2022/01/02 00:52:06;;;;;;;;;;;;;;;;;;1007363;29;1970;-34
2022/01/02 00:52:41;;;;;;;;;;;;;;;;;;1003283;29;1919;-33
2022/01/02 00:53:14;;;;;;;;;;;;;;;;;;1003410;29;880;-34
2022/01/02 00:53:47;;;;;;;;;;;;;;;;;;1003486;29;925;-33
2022/01/02 00:54:18;;;;;;;;;;;;;;;;;;1004632;29;1368;-33
2022/01/02 00:54:49;;;;;;;;;;;;;;;;;;1004265;29;1436;-33
2022/01/02 00:55:21;;;;;;;;;;;;;;;;;;1007170;29;797;-33
2022/01/02 00:55:56;;;;;;;;;;;;;;;;;;1003354;29;1798;-33
2022/01/02 00:56:27;;;;;;;;;;;;;;;;;;1000330;29;1353;-33
2022/01/02 00:57:03;;;;;;;;;;;;;;;;;;999706;29;1268;-33
2022/01/02 00:57:35;;;;;;;;;;;;;;;;;;1000821;29;936;-33
2022/01/02 00:58:11;;;;;;;;;;;;;;;;;;1000860;29;2563;-33
2022/01/02 00:58:44;;;;;;;;;;;;;;;;;;1001329;29;932;-33
2022/01/02 00:59:21;;;;;;;;;;;;;;;;;;1007206;29;849;-33
2022/01/02 01:00:04;;;;;;;;;;;;;;;;;;1003536;29;1318;-33
2022/01/02 01:00:44;;;;;;;;;;;;;;;;;;999372;29;1180;-33
2022/01/02 01:01:18;;;;;;;;;;;;;;;;;;1003525;29;829;-33
2022/01/02 01:01:57;;;;;;;;;;;;;;;;;;1006656;29;920;-33
2022/01/02 01:02:31;;;;;;;;;;;;;;;;;;1005801;29;1133;-33
2022/01/02 01:03:08;;;;;;;;;;;;;;;;;;1003590;29;873;-33
2022/01/02 01:03:39;;;;;;;;;;;;;;;;;;999463;29;1181;-33
2022/01/02 01:04:11;;;;;;;;;;;;;;;;;;1001162;29;944;-32
2022/01/02 01:04:43;;;;;;;;;;;;;;;;;;1004580;29;1032;-33
2022/01/02 01:05:24;;;;;;;;;;;;;;;;;;1007940;29;836;-33
2022/01/02 01:05:55;;;;;;;;;;;;;;;;;;1007065;29;1410;-33
2022/01/02 01:06:29;;;;;;;;;;;;;;;;;;1007286;29;797;-33
2022/01/02 01:07:03;;;;;;;;;;;;;;;;;;1007513;29;1118;-33
2022/01/02 01:07:34;;;;;;;;;;;;;;;;;;1008018;29;1155;-33
2022/01/02 01:08:05;;;;;;;;;;;;;;;;;;1011569;29;982;-34
2022/01/02 01:08:36;;;;;;;;;;;;;;;;;;1010849;29;864;-33
2022/01/02 01:09:06;;;;;;;;;;;;;;;;;;1011330;29;781;-33
2022/01/02 01:09:37;;;;;;;;;;;;;;;;;;1011117;29;848;-33
2022/01/02 01:10:11;;;;;;;;;;;;;;;;;;1011149;29;892;-33
2022/01/02 01:10:44;;;;;;;;;;;;;;;;;;1011529;29;832;-33
2022/01/02 01:11:14;;;;;;;;;;;;;;;;;;1011486;29;753;-33
2022/01/02 01:11:45;;;;;;;;;;;;;;;;;;1007083;29;1951;-33
2022/01/02 01:12:16;;;;;;;;;;;;;;;;;;1011076;29;872;-34
2022/01/02 01:12:52;;;;;;;;;;;;;;;;;;1011110;29;848;-33
2022/01/02 01:13:23;;;;;;;;;;;;;;;;;;1007410;29;1170;-33
2022/01/02 01:13:54;;;;;;;;;;;;;;;;;;1003719;29;1282;-33
2022/01/02 01:14:25;;;;;;;;;;;;;;;;;;1006678;29;1295;-33
2022/01/02 01:14:56;;;;;;;;;;;;;;;;;;1003872;29;840;-33
2022/01/02 01:15:28;;;;;;;;;;;;;;;;;;999570;29;833;-33
2022/01/02 01:15:59;;;;;;;;;;;;;;;;;;999494;29;1156;-33
2022/01/02 01:16:31;;;;;;;;;;;;;;;;;;999514;29;1330;-33
2022/01/02 01:17:01;;;;;;;;;;;;;;;;;;1000793;29;893;-33
2022/01/02 01:17:32;;;;;;;;;;;;;;;;;;1004215;29;853;-33
2022/01/02 01:18:03;;;;;;;;;;;;;;;;;;1004452;29;828;-33
2022/01/02 01:18:34;;;;;;;;;;;;;;;;;;1008267;29;808;-33
2022/01/02 01:19:05;;;;;;;;;;;;;;;;;;1008483;29;785;-32
2022/01/02 01:19:35;;;;;;;;;;;;;;;;;;1008335;29;773;-33
2022/01/02 01:20:07;;;;;;;;;;;;;;;;;;1004217;29;797;-33
2022/01/02 01:20:41;;;;;;;;;;;;;;;;;;1004013;29;864;-33
2022/01/02 01:21:12;;;;;;;;;;;;;;;;;;1004241;29;828;-32
2022/01/02 01:21:42;;;;;;;;;;;;;;;;;;1005095;29;868;-33
2022/01/02 01:22:14;;;;;;;;;;;;;;;;;;1007870;29;1262;-33
2022/01/02 01:22:48;;;;;;;;;;;;;;;;;;1008069;29;773;-33
2022/01/02 01:23:19;;;;;;;;;;;;;;;;;;1008021;29;796;-33
2022/01/02 01:23:50;;;;;;;;;;;;;;;;;;1007979;29;919;-33
2022/01/02 01:24:20;;;;;;;;;;;;;;;;;;1008511;29;883;-33
2022/01/02 01:24:51;;;;;;;;;;;;;;;;;;1008206;29;843;-33
2022/01/02 01:25:22;;;;;;;;;;;;;;;;;;1004327;29;891;-33
2022/01/02 01:25:53;;;;;;;;;;;;;;;;;;1003869;29;1423;-33
2022/01/02 01:26:23;;;;;;;;;;;;;;;;;;1008026;29;1119;-33
2022/01/02 01:26:56;;;;;;;;;;;;;;;;;;1004001;29;1050;-33
2022/01/02 01:27:27;;;;;;;;;;;;;;;;;;1004182;29;837;-33
2022/01/02 01:27:57;;;;;;;;;;;;;;;;;;1000277;29;885;-33
2022/01/02 01:28:28;;;;;;;;;;;;;;;;;;1000895;29;1294;-33
2022/01/02 01:28:58;;;;;;;;;;;;;;;;;;1000145;29;1398;-34
2022/01/02 01:29:34;;;;;;;;;;;;;;;;;;1000545;29;904;-33
2022/01/02 01:30:06;;;;;;;;;;;;;;;;;;1000287;29;1271;-34
2022/01/02 01:30:37;;;;;;;;;;;;;;;;;;1000327;29;888;-33
2022/01/02 01:31:07;;;;;;;;;;;;;;;;;;1000320;29;1038;-33
2022/01/02 01:31:38;;;;;;;;;;;;;;;;;;996498;29;1165;-33
2022/01/02 01:32:09;;;;;;;;;;;;;;;;;;1000404;29;1915;-33
2022/01/02 01:32:39;;;;;;;;;;;;;;;;;;1004152;29;864;-33
2022/01/02 01:33:10;;;;;;;;;;;;;;;;;;1004315;29;987;-33
2022/01/02 01:33:41;;;;;;;;;;;;;;;;;;1004147;29;837;-34
2022/01/02 01:34:11;;;;;;;;;;;;;;;;;;1004027;29;780;-33
2022/01/02 01:34:41;;;;;;;;;;;;;;;;;;1004276;29;837;-33
2022/01/02 01:35:12;;;;;;;;;;;;;;;;;;1004006;29;884;-33
2022/01/02 01:35:43;;;;;;;;;;;;;;;;;;1004271;29;872;-33
2022/01/02 01:36:13;;;;;;;;;;;;;;;;;;1004050;29;1156;-33
2022/01/02 01:36:43;;;;;;;;;;;;;;;;;;1000264;29;1286;-33
2022/01/02 01:37:14;;;;;;;;;;;;;;;;;;1000139;29;1244;-33
2022/01/02 01:37:46;;;;;;;;;;;;;;;;;;1000270;29;1012;-33
2022/01/02 01:38:16;;;;;;;;;;;;;;;;;;1000485;29;1197;-33
2022/01/02 01:38:46;;;;;;;;;;;;;;;;;;1004126;29;1274;-33
2022/01/02 01:39:17;;;;;;;;;;;;;;;;;;1003908;29;1223;-34
2022/01/02 01:39:47;;;;;;;;;;;;;;;;;;1004231;29;852;-34
2022/01/02 01:40:19;;;;;;;;;;;;;;;;;;1004068;29;801;-33
2022/01/02 01:40:58;;;;;;;;;;;;;;;;;;1000361;29;1306;-34
2022/01/02 01:41:34;;;;;;;;;;;;;;;;;;1004216;29;983;-34
2022/01/02 01:42:10;;;;;;;;;;;;;;;;;;1003914;29;1271;-34
2022/01/02 01:42:44;;;;;;;;;;;;;;;;;;1004157;29;829;-33
2022/01/02 01:43:15;;;;;;;;;;;;;;;;;;1000123;29;1322;-33
2022/01/02 01:45:54;;;;;;;;;;;;;;;;;;1000002;29;1160;-32
2022/01/02 01:46:24;;;;;;;;;;;;;;;;;;997750;29;1208;-33
2022/01/02 01:46:55;;;;;;;;;;;;;;;;;;1000691;29;1366;-34
2022/01/02 01:47:26;;;;;;;;;;;;;;;;;;1004076;29;1216;-34
2022/01/02 01:48:02;;;;;;;;;;;;;;;;;;1000158;29;1185;-33
2022/01/02 01:48:33;;;;;;;;;;;;;;;;;;1000254;29;805;-33
2022/01/02 01:49:23;;;;;;;;;;;;;;;;;;1001047;29;891;-33
2022/01/02 01:49:53;;;;;;;;;;;;;;;;;;1007367;29;718;-33
2022/01/02 01:50:25;;;;;;;;;;;;;;;;;;1008405;29;813;-33
2022/01/02 01:50:56;;;;;;;;;;;;;;;;;;1003993;29;1299;-33
2022/01/02 01:51:27;;;;;;;;;;;;;;;;;;1000149;29;1457;-33
2022/01/02 01:51:58;;;;;;;;;;;;;;;;;;1000144;29;2327;-33
2022/01/02 01:52:29;;;;;;;;;;;;;;;;;;1004077;29;1306;-33
2022/01/02 01:52:59;;;;;;;;;;;;;;;;;;1004069;29;785;-33
2022/01/02 01:53:30;;;;;;;;;;;;;;;;;;1000432;29;912;-33
2022/01/02 01:54:00;;;;;;;;;;;;;;;;;;1000159;29;1364;-33
2022/01/02 01:54:31;;;;;;;;;;;;;;;;;;1003999;29;1183;-33
2022/01/02 01:55:02;;;;;;;;;;;;;;;;;;1000235;29;1288;-33
2022/01/02 01:55:34;;;;;;;;;;;;;;;;;;1000276;29;1158;-33
2022/01/02 01:56:05;;;;;;;;;;;;;;;;;;1000256;29;1137;-33
2022/01/02 01:56:36;;;;;;;;;;;;;;;;;;1003846;29;1183;-32
2022/01/02 01:57:06;;;;;;;;;;;;;;;;;;1000281;29;1219;-33
2022/01/02 01:57:39;;;;;;;;;;;;;;;;;;1003972;29;1010;-33
2022/01/02 01:58:10;;;;;;;;;;;;;;;;;;1000046;29;1446;-33
2022/01/02 01:58:44;;;;;;;;;;;;;;;;;;996449;29;1304;-33
2022/01/02 01:59:16;;;;;;;;;;;;;;;;;;996908;29;1179;-33
2022/01/02 01:59:48;;;;;;;;;;;;;;;;;;1000235;29;1319;-33
2022/01/02 02:00:20;;;;;;;;;;;;;;;;;;1000174;29;963;-33
2022/01/02 02:00:55;;;;;;;;;;;;;;;;;;1000275;29;1299;-33
2022/01/02 02:01:36;;;;;;;;;;;;;;;;;;1002758;29;1665;-33
2022/01/02 02:02:07;;;;;;;;;;;;;;;;;;1003872;29;1168;-33
2022/01/02 02:02:38;;;;;;;;;;;;;;;;;;1000209;29;1160;-33
2022/01/02 02:03:08;;;;;;;;;;;;;;;;;;996250;29;1211;-33
2022/01/02 02:03:39;;;;;;;;;;;;;;;;;;996521;29;1735;-33
2022/01/02 02:04:10;;;;;;;;;;;;;;;;;;1000315;29;1440;-33
2022/01/02 02:04:41;;;;;;;;;;;;;;;;;;1003917;29;833;-33
2022/01/02 02:05:11;;;;;;;;;;;;;;;;;;1004063;29;1046;-33
2022/01/02 02:05:44;;;;;;;;;;;;;;;;;;1003976;29;922;-33
2022/01/02 02:06:15;;;;;;;;;;;;;;;;;;1003961;29;1418;-33
2022/01/02 02:06:45;;;;;;;;;;;;;;;;;;1000105;29;1263;-33
2022/01/02 02:07:19;;;;;;;;;;;;;;;;;;1000121;29;1330;-33
2022/01/02 02:07:51;;;;;;;;;;;;;;;;;;1000796;29;1216;-33
2022/01/02 02:08:27;;;;;;;;;;;;;;;;;;1003828;29;1391;-33
2022/01/02 02:08:59;;;;;;;;;;;;;;;;;;1000130;29;1117;-33
2022/01/02 02:09:42;;;;;;;;;;;;;;;;;;1000117;29;1265;-33
2022/01/02 02:10:35;;;;;;;;;;;;;;;;;;998311;29;1336;-33
2022/01/02 02:11:10;;;;;;;;;;;;;;;;;;999981;29;1142;-33
2022/01/02 02:11:40;;;;;;;;;;;;;;;;;;1000281;29;998;-33
2022/01/02 02:12:11;;;;;;;;;;;;;;;;;;1003519;29;1964;-33
2022/01/02 02:12:46;;;;;;;;;;;;;;;;;;1000017;29;1273;-33
2022/01/02 02:13:17;;;;;;;;;;;;;;;;;;1000224;29;1499;-33
2022/01/02 02:13:52;;;;;;;;;;;;;;;;;;1000182;29;1809;-33
2022/01/02 02:14:22;;;;;;;;;;;;;;;;;;1000167;29;1319;-33
2022/01/02 02:14:53;;;;;;;;;;;;;;;;;;1000606;29;1305;-33
2022/01/02 02:15:24;;;;;;;;;;;;;;;;;;1000041;29;1129;-33
2022/01/02 02:15:55;;;;;;;;;;;;;;;;;;1000103;29;916;-33
2022/01/02 02:16:26;;;;;;;;;;;;;;;;;;996401;29;1294;-33
2022/01/02 02:16:59;;;;;;;;;;;;;;;;;;1000831;29;814;-33
2022/01/02 02:17:30;;;;;;;;;;;;;;;;;;1000569;29;1192;-33
2022/01/02 02:18:01;;;;;;;;;;;;;;;;;;1004011;29;1196;-33
2022/01/02 02:18:31;;;;;;;;;;;;;;;;;;1000070;29;1188;-33
2022/01/02 02:19:03;;;;;;;;;;;;;;;;;;1004128;29;1124;-33
2022/01/02 02:19:33;;;;;;;;;;;;;;;;;;1007779;29;867;-33
2022/01/02 02:20:23;;;;;;;;;;;;;;;;;;1004017;29;1310;-33
2022/01/02 02:20:53;;;;;;;;;;;;;;;;;;1002604;29;1194;-33
2022/01/02 02:21:37;;;;;;;;;;;;;;;;;;1000042;29;1280;-33
2022/01/02 02:22:08;;;;;;;;;;;;;;;;;;999942;29;1173;-33
2022/01/02 02:22:41;;;;;;;;;;;;;;;;;;998277;29;857;-33
2022/01/02 02:23:14;;;;;;;;;;;;;;;;;;997502;29;1299;-33
2022/01/02 02:23:45;;;;;;;;;;;;;;;;;;1000807;29;920;-33
2022/01/02 02:24:15;;;;;;;;;;;;;;;;;;1004699;29;927;-33
2022/01/02 02:24:46;;;;;;;;;;;;;;;;;;1004259;29;809;-34
2022/01/02 02:25:17;;;;;;;;;;;;;;;;;;1007819;29;1195;-33
2022/01/02 02:25:48;;;;;;;;;;;;;;;;;;1007647;29;941;-33
2022/01/02 02:26:18;;;;;;;;;;;;;;;;;;1007984;29;817;-33
2022/01/02 02:26:48;;;;;;;;;;;;;;;;;;1011806;29;939;-33
2022/01/02 02:27:23;;;;;;;;;;;;;;;;;;1011978;29;932;-33
2022/01/02 02:27:53;;;;;;;;;;;;;;;;;;1007708;29;1222;-33
2022/01/02 02:28:27;;;;;;;;;;;;;;;;;;1007153;29;1294;-33
2022/01/02 02:29:00;;;;;;;;;;;;;;;;;;1011527;29;1296;-33
2022/01/02 02:29:31;;;;;;;;;;;;;;;;;;1010659;29;1274;-33
2022/01/02 02:30:02;;;;;;;;;;;;;;;;;;1008554;29;876;-33
2022/01/02 02:30:35;;;;;;;;;;;;;;;;;;1007813;29;1134;-33
2022/01/02 02:31:05;;;;;;;;;;;;;;;;;;1007756;29;789;-33
2022/01/02 02:31:36;;;;;;;;;;;;;;;;;;1003846;29;1240;-33
2022/01/02 02:32:07;;;;;;;;;;;;;;;;;;1000187;29;1962;-33
2022/01/02 02:32:37;;;;;;;;;;;;;;;;;;1003902;29;773;-33
2022/01/02 02:33:08;;;;;;;;;;;;;;;;;;1000148;29;1172;-33
2022/01/02 02:33:38;;;;;;;;;;;;;;;;;;1004061;29;1479;-33
2022/01/02 02:34:09;;;;;;;;;;;;;;;;;;1007630;29;801;-33
2022/01/02 02:34:39;;;;;;;;;;;;;;;;;;1003982;29;920;-33
2022/01/02 02:35:10;;;;;;;;;;;;;;;;;;1007668;29;884;-33
2022/01/02 02:35:42;;;;;;;;;;;;;;;;;;1007766;29;777;-33
2022/01/02 02:36:13;;;;;;;;;;;;;;;;;;1004104;29;1206;-33
2022/01/02 02:36:44;;;;;;;;;;;;;;;;;;1007624;29;2313;-33
2022/01/02 02:37:14;;;;;;;;;;;;;;;;;;1007755;29;868;-33
2022/01/02 02:37:45;;;;;;;;;;;;;;;;;;1007719;29;1340;-33
2022/01/02 02:38:19;;;;;;;;;;;;;;;;;;1004298;29;1344;-33
2022/01/02 02:38:53;;;;;;;;;;;;;;;;;;1003951;29;1190;-33
2022/01/02 02:39:23;;;;;;;;;;;;;;;;;;999961;29;852;-33
2022/01/02 02:39:54;;;;;;;;;;;;;;;;;;1000739;29;1398;-33
2022/01/02 02:40:26;;;;;;;;;;;;;;;;;;1003902;29;947;-33
2022/01/02 02:40:58;;;;;;;;;;;;;;;;;;1007719;29;1163;-33
2022/01/02 02:41:33;;;;;;;;;;;;;;;;;;1003846;29;1145;-33
2022/01/02 02:42:12;;;;;;;;;;;;;;;;;;999930;29;1003;-33
2022/01/02 02:43:29;;;;;;;;;;;;;;;;;;997863;29;1284;-33
2022/01/02 02:44:18;;;;;;;;;;;;;;;;;;1007723;29;1191;-33
2022/01/02 02:44:57;;;;;;;;;;;;;;;;;;1003836;29;2178;-33
2022/01/02 02:49:09;;;;;;;;;;;;;;;;;;999671;29;1113;-32
2022/01/02 02:49:40;;;;;;;;;;;;;;;;;;1001290;29;1184;-33
2022/01/02 02:50:11;;;;;;;;;;;;;;;;;;1003774;29;1458;-33
2022/01/02 02:50:47;;;;;;;;;;;;;;;;;;1003944;29;927;-33
2022/01/02 02:51:26;;;;;;;;;;;;;;;;;;1003808;29;1230;-33
2022/01/02 02:52:03;;;;;;;;;;;;;;;;;;1005730;29;1974;-33
2022/01/02 02:52:44;;;;;;;;;;;;;;;;;;1003761;29;1263;-33
2022/01/02 02:53:16;;;;;;;;;;;;;;;;;;1003627;29;1163;-33
2022/01/02 02:53:49;;;;;;;;;;;;;;;;;;1003816;29;1312;-33
2022/01/02 02:54:21;;;;;;;;;;;;;;;;;;999939;29;1348;-33
2022/01/02 02:54:51;;;;;;;;;;;;;;;;;;1000528;29;1321;-33
2022/01/02 02:55:30;;;;;;;;;;;;;;;;;;1003609;29;1207;-33
2022/01/02 02:56:01;;;;;;;;;;;;;;;;;;1005354;29;948;-33
2022/01/02 02:56:43;;;;;;;;;;;;;;;;;;1003704;29;1151;-33
2022/01/02 02:57:14;;;;;;;;;;;;;;;;;;1002624;29;833;-33
2022/01/02 02:57:46;;;;;;;;;;;;;;;;;;999892;29;1287;-33
2022/01/02 02:58:39;;;;;;;;;;;;;;;;;;1001765;29;1152;-33
2022/01/02 02:59:10;;;;;;;;;;;;;;;;;;1002813;29;1460;-33
2022/01/02 02:59:40;;;;;;;;;;;;;;;;;;1003787;29;967;-33
2022/01/02 03:00:12;;;;;;;;;;;;;;;;;;1003305;29;1195;-33
2022/01/02 03:00:43;;;;;;;;;;;;;;;;;;1003977;29;841;-33
2022/01/02 03:01:15;;;;;;;;;;;;;;;;;;1003886;29;1168;-33
2022/01/02 03:01:46;;;;;;;;;;;;;;;;;;1004135;29;1637;-33
2022/01/02 03:02:17;;;;;;;;;;;;;;;;;;1007691;29;844;-33
2022/01/02 03:02:52;;;;;;;;;;;;;;;;;;1004622;29;1336;-33
2022/01/02 03:03:23;;;;;;;;;;;;;;;;;;1003555;29;892;-33
2022/01/02 03:03:54;;;;;;;;;;;;;;;;;;1003861;29;1269;-33
2022/01/02 03:04:24;;;;;;;;;;;;;;;;;;1003725;29;860;-36
2022/01/02 03:04:55;;;;;;;;;;;;;;;;;;1004024;29;773;-33
2022/01/02 03:05:26;;;;;;;;;;;;;;;;;;1007610;29;1121;-33
2022/01/02 03:05:56;;;;;;;;;;;;;;;;;;1007743;29;951;-33
2022/01/02 03:06:27;;;;;;;;;;;;;;;;;;1007465;29;1303;-33
2022/01/02 03:06:57;;;;;;;;;;;;;;;;;;1007846;29;821;-33
2022/01/02 03:07:29;;;;;;;;;;;;;;;;;;1007169;29;1288;-33
2022/01/02 03:08:00;;;;;;;;;;;;;;;;;;1007836;29;951;-33
2022/01/02 03:08:31;;;;;;;;;;;;;;;;;;1007597;29;872;-33
2022/01/02 03:09:09;;;;;;;;;;;;;;;;;;1008078;29;794;-33
2022/01/02 03:09:47;;;;;;;;;;;;;;;;;;1007436;29;1246;-33
2022/01/02 03:10:19;;;;;;;;;;;;;;;;;;1003851;29;1337;-34
2022/01/02 03:10:49;;;;;;;;;;;;;;;;;;1003656;29;1011;-33
2022/01/02 03:11:21;;;;;;;;;;;;;;;;;;1000906;29;1671;-33
2022/01/02 03:11:52;;;;;;;;;;;;;;;;;;1003710;29;1911;-33
2022/01/02 03:12:23;;;;;;;;;;;;;;;;;;1003726;29;856;-33
2022/01/02 03:12:55;;;;;;;;;;;;;;;;;;1000386;29;1188;-33
2022/01/02 03:13:26;;;;;;;;;;;;;;;;;;1002455;29;1999;-33
2022/01/02 03:13:56;;;;;;;;;;;;;;;;;;1006755;29;1184;-33
2022/01/02 03:14:26;;;;;;;;;;;;;;;;;;1003672;29;1304;-34
2022/01/02 03:14:57;;;;;;;;;;;;;;;;;;999516;29;1154;-33
2022/01/02 03:15:27;;;;;;;;;;;;;;;;;;999611;29;1400;-33
2022/01/02 03:15:58;;;;;;;;;;;;;;;;;;999164;29;1037;-34
2022/01/02 03:16:28;;;;;;;;;;;;;;;;;;1003517;29;808;-34
2022/01/02 03:16:59;;;;;;;;;;;;;;;;;;1007628;29;855;-34
2022/01/02 03:17:30;;;;;;;;;;;;;;;;;;1007531;29;1514;-34
2022/01/02 03:18:00;;;;;;;;;;;;;;;;;;1007587;29;990;-34
2022/01/02 03:18:31;;;;;;;;;;;;;;;;;;1007601;29;921;-33
2022/01/02 03:19:02;;;;;;;;;;;;;;;;;;1007693;29;914;-34
2022/01/02 03:19:33;;;;;;;;;;;;;;;;;;1003635;29;1157;-34
2022/01/02 03:20:03;;;;;;;;;;;;;;;;;;1000185;29;1277;-34
2022/01/02 03:20:34;;;;;;;;;;;;;;;;;;1003688;29;800;-34
2022/01/02 03:21:05;;;;;;;;;;;;;;;;;;1003932;29;911;-34
2022/01/02 03:21:35;;;;;;;;;;;;;;;;;;1007756;29;859;-33
2022/01/02 03:22:08;;;;;;;;;;;;;;;;;;1007452;29;1571;-34
2022/01/02 03:22:38;;;;;;;;;;;;;;;;;;1007668;29;1183;-34
2022/01/02 03:23:09;;;;;;;;;;;;;;;;;;1007515;29;879;-33
2022/01/02 03:23:39;;;;;;;;;;;;;;;;;;1003783;29;1107;-34
2022/01/02 03:24:09;;;;;;;;;;;;;;;;;;1003862;29;777;-33
2022/01/02 03:24:40;;;;;;;;;;;;;;;;;;1007537;29;814;-34
2022/01/02 03:25:13;;;;;;;;;;;;;;;;;;1003733;29;1286;-34
2022/01/02 03:25:45;;;;;;;;;;;;;;;;;;1003413;29;1151;-34
2022/01/02 03:26:15;;;;;;;;;;;;;;;;;;999868;29;1153;-34
2022/01/02 03:26:46;;;;;;;;;;;;;;;;;;1000367;29;2264;-34
2022/01/02 03:27:16;;;;;;;;;;;;;;;;;;1003775;29;1290;-33
2022/01/02 03:27:46;;;;;;;;;;;;;;;;;;1003741;29;955;-33
2022/01/02 03:28:17;;;;;;;;;;;;;;;;;;1003792;29;1531;-33
2022/01/02 03:28:47;;;;;;;;;;;;;;;;;;1003482;29;1148;-33
2022/01/02 03:29:18;;;;;;;;;;;;;;;;;;1000009;29;1580;-33
2022/01/02 03:29:48;;;;;;;;;;;;;;;;;;999948;29;876;-33
2022/01/02 03:30:19;;;;;;;;;;;;;;;;;;1000069;29;769;-34
2022/01/02 03:30:49;;;;;;;;;;;;;;;;;;1003610;29;860;-34
2022/01/02 03:31:20;;;;;;;;;;;;;;;;;;1007548;29;987;-34
2022/01/02 03:31:50;;;;;;;;;;;;;;;;;;1007487;29;1903;-34
2022/01/02 03:32:21;;;;;;;;;;;;;;;;;;1011492;29;1290;-34
2022/01/02 03:32:51;;;;;;;;;;;;;;;;;;1011320;29;868;-34
2022/01/02 03:33:22;;;;;;;;;;;;;;;;;;1011529;29;884;-34
2022/01/02 03:33:52;;;;;;;;;;;;;;;;;;1011294;29;970;-34
2022/01/02 03:34:23;;;;;;;;;;;;;;;;;;1007583;29;1215;-34
2022/01/02 03:34:54;;;;;;;;;;;;;;;;;;1003648;29;1167;-34
2022/01/02 03:35:24;;;;;;;;;;;;;;;;;;999841;29;1163;-34
2022/01/02 03:35:55;;;;;;;;;;;;;;;;;;1003705;29;681;-34
2022/01/02 03:36:26;;;;;;;;;;;;;;;;;;1003533;29;1159;-34
2022/01/02 03:36:56;;;;;;;;;;;;;;;;;;1003623;29;1247;-34
2022/01/02 03:37:28;;;;;;;;;;;;;;;;;;999957;29;971;-34
2022/01/02 03:37:59;;;;;;;;;;;;;;;;;;1000107;29;1345;-34
2022/01/02 03:38:30;;;;;;;;;;;;;;;;;;1000296;29;908;-34
2022/01/02 03:39:01;;;;;;;;;;;;;;;;;;1003617;29;947;-34
2022/01/02 03:39:32;;;;;;;;;;;;;;;;;;1003990;29;849;-33
2022/01/02 03:40:04;;;;;;;;;;;;;;;;;;1007436;29;1155;-34
2022/01/02 03:40:35;;;;;;;;;;;;;;;;;;1003564;29;1475;-33
2022/01/02 03:41:05;;;;;;;;;;;;;;;;;;999759;29;1109;-34
2022/01/02 03:41:36;;;;;;;;;;;;;;;;;;1000338;29;813;-34
2022/01/02 03:42:06;;;;;;;;;;;;;;;;;;1003688;29;785;-34
2022/01/02 03:42:37;;;;;;;;;;;;;;;;;;1007690;29;829;-34
2022/01/02 03:43:07;;;;;;;;;;;;;;;;;;1003446;29;1164;-34
2022/01/02 03:43:38;;;;;;;;;;;;;;;;;;1003812;29;841;-34
2022/01/02 03:44:08;;;;;;;;;;;;;;;;;;1003726;29;697;-34
2022/01/02 03:44:39;;;;;;;;;;;;;;;;;;1007467;29;1227;-34
2022/01/02 03:45:10;;;;;;;;;;;;;;;;;;1003640;29;1558;-34
2022/01/02 03:45:40;;;;;;;;;;;;;;;;;;999644;29;1276;-33
2022/01/02 03:46:11;;;;;;;;;;;;;;;;;;996148;29;1470;-33
2022/01/02 03:46:41;;;;;;;;;;;;;;;;;;1000012;29;1022;-34
2022/01/02 03:47:12;;;;;;;;;;;;;;;;;;999877;29;1389;-33
2022/01/02 03:47:43;;;;;;;;;;;;;;;;;;1003790;29;829;-34
2022/01/02 03:48:14;;;;;;;;;;;;;;;;;;1007458;29;1549;-33
2022/01/02 03:48:45;;;;;;;;;;;;;;;;;;1003558;29;1441;-34
2022/01/02 03:49:17;;;;;;;;;;;;;;;;;;999861;29;1425;-33
2022/01/02 03:49:47;;;;;;;;;;;;;;;;;;999877;29;881;-33
2022/01/02 03:50:19;;;;;;;;;;;;;;;;;;1000208;29;1342;-33
2022/01/02 03:50:49;;;;;;;;;;;;;;;;;;1003537;29;817;-34
2022/01/02 03:51:21;;;;;;;;;;;;;;;;;;1000206;29;1115;-33
2022/01/02 03:51:51;;;;;;;;;;;;;;;;;;1003802;29;1899;-34
2022/01/02 03:52:23;;;;;;;;;;;;;;;;;;1007208;29;1402;-33
2022/01/02 03:52:54;;;;;;;;;;;;;;;;;;1007844;29;1743;-33
2022/01/02 03:53:26;;;;;;;;;;;;;;;;;;1007351;29;1186;-34
2022/01/02 03:53:56;;;;;;;;;;;;;;;;;;1007420;29;896;-33